Time;durP1;ratioP1;P1;durP2;ratioP2;P2;SDS_P1;SDS_P2;PMS_P1;PMS_P2;Temp;Humidity;BMP_temperature;BMP_pressure;BME280_temperature;BME280_humidity;BME280_pressure;Samples;Min_cycle;Max_cycle;Signal;HPM_P1;HPM_P2
2021/10/18 00:01:06;;;;;;;15.90;14.40;;;;;;;10.65;80.62;96164.81;6153169;23;20179;-83
2021/10/18 00:03:33;;;;;;;15.83;14.27;;;;;;;10.63;80.10;96169.31;6153101;23;20195;-83
2021/10/18 00:06:00;;;;;;;16.37;14.87;;;;;;;10.60;79.85;96170.44;6153270;23;20189;-83
2021/10/18 00:08:28;;;;;;;15.70;14.20;;;;;;;10.63;79.89;96177.84;6152356;23;20194;-84
2021/10/18 00:10:54;;;;;;;16.07;14.57;;;;;;;10.64;79.90;96170.94;6153300;23;20166;-82
2021/10/18 00:13:21;;;;;;;17.30;15.60;;;;;;;10.56;80.49;96176.09;6153812;23;20207;-82
2021/10/18 00:15:47;;;;;;;16.00;14.50;;;;;;;10.53;81.00;96174.66;6153337;23;20175;-83
2021/10/18 00:18:14;;;;;;;16.30;14.70;;;;;;;10.58;81.06;96179.31;6153258;23;20666;-82
2021/10/18 00:20:41;;;;;;;16.87;15.17;;;;;;;10.61;80.50;96186.69;6153632;23;20205;-83
2021/10/18 00:23:09;;;;;;;25.03;16.43;;;;;;;10.58;81.29;96187.81;6153578;23;20205;-83
2021/10/18 00:25:36;;;;;;;30.80;17.63;;;;;;;10.58;81.95;96179.31;6153505;23;20262;-82
2021/10/18 00:28:03;;;;;;;20.97;17.57;;;;;;;10.56;82.46;96187.22;6153673;23;20186;-83
2021/10/18 00:30:30;;;;;;;18.20;16.40;;;;;;;10.57;82.37;96182.88;6153377;23;20597;-84
2021/10/18 00:32:56;;;;;;;18.30;16.40;;;;;;;10.60;82.04;96185.09;6153442;23;20199;-83
2021/10/18 00:35:23;;;;;;;17.47;15.87;;;;;;;10.56;82.33;96181.25;6153240;23;20189;-84
2021/10/18 00:37:49;;;;;;;17.00;15.30;;;;;;;10.47;82.81;96193.31;6154920;23;20182;-83
2021/10/18 00:40:16;;;;;;;16.63;15.03;;;;;;;10.45;82.96;96184.94;6171167;23;20181;-82
2021/10/18 00:42:43;;;;;;;18.80;15.80;;;;;;;10.39;82.81;96178.66;6172092;23;20573;-82
2021/10/18 00:45:11;;;;;;;17.23;15.53;;;;;;;10.44;81.60;96177.38;6166182;23;20178;-82
2021/10/18 00:47:38;;;;;;;17.10;15.40;;;;;;;10.29;83.66;96175.44;6162799;23;20185;-82
2021/10/18 00:50:06;;;;;;;16.73;15.13;;;;;;;10.37;82.34;96174.66;6172236;23;20281;-82
2021/10/18 00:52:35;;;;;;;20.10;15.70;;;;;;;10.40;82.00;96179.47;6173306;23;20209;-82
2021/10/18 00:55:03;;;;;;;17.30;15.50;;;;;;;10.39;82.08;96188.16;6173232;23;20175;-82
2021/10/18 00:57:30;;;;;;;17.47;15.70;;;;;;;10.46;82.01;96185.75;6173515;23;20179;-81
2021/10/18 00:59:59;;;;;;;16.47;14.87;;;;;;;10.45;81.56;96191.84;6173888;23;20175;-82
2021/10/18 01:02:26;;;;;;;17.03;15.23;;;;;;;10.52;80.98;96188.50;6172970;23;20202;-81
2021/10/18 01:04:53;;;;;;;17.27;15.50;;;;;;;10.55;80.40;96177.06;6172944;23;20189;-82
2021/10/18 01:07:19;;;;;;;16.73;15.13;;;;;;;10.57;79.83;96183.66;6171025;23;20179;-84
2021/10/18 01:09:46;;;;;;;16.20;14.60;;;;;;;10.61;79.27;96177.22;6158477;23;20214;-84
2021/10/18 01:12:12;;;;;;;16.27;14.67;;;;;;;10.53;79.15;96179.00;6159668;23;20203;-83
2021/10/18 01:14:39;;;;;;;15.40;13.90;;;;;;;10.46;79.32;96181.41;6159844;23;20175;-84
2021/10/18 01:17:07;;;;;;;15.93;14.37;;;;;;;10.43;79.55;96179.13;6159240;23;20194;-84
2021/10/18 01:19:33;;;;;;;14.73;13.33;;;;;;;10.47;79.11;96180.44;6160501;23;20181;-84
2021/10/18 01:22:02;;;;;;;14.60;13.20;;;;;;;10.46;78.79;96180.59;6160687;23;20539;-84
2021/10/18 01:24:29;;;;;;;15.13;13.63;;;;;;;10.32;79.09;96180.28;6160776;23;20175;-83
2021/10/18 01:26:56;;;;;;;14.20;12.90;;;;;;;10.20;80.58;96176.38;6160775;23;20183;-83
2021/10/18 01:29:23;;;;;;;15.50;13.90;;;;;;;10.21;80.47;96183.16;6160114;23;20205;-83
2021/10/18 01:31:49;;;;;;;15.47;13.97;;;;;;;10.21;80.48;96183.16;6160324;23;20197;-83
2021/10/18 01:34:19;;;;;;;16.07;14.47;;;;;;;10.12;80.53;96175.56;6160628;23;20913;-85
2021/10/18 01:36:46;;;;;;;15.80;14.23;;;;;;;10.22;80.14;96178.81;6160122;23;20663;-84
2021/10/18 01:39:14;;;;;;;15.47;13.87;;;;;;;10.19;80.01;96181.72;6159530;23;20253;-83
2021/10/18 01:41:41;;;;;;;16.00;14.40;;;;;;;10.14;80.36;96187.31;6160132;23;20195;-85
2021/10/18 01:44:19;;;;;;;15.13;13.73;;;;;;;10.17;80.61;96178.47;6159462;23;20185;-83
2021/10/18 01:46:48;;;;;;;14.87;13.47;;;;;;;10.25;79.94;96171.56;6159862;23;20194;-84
2021/10/18 01:49:17;;;;;;;15.83;14.33;;;;;;;10.30;79.78;96174.47;6159710;23;20274;-85
2021/10/18 01:51:44;;;;;;;16.73;14.93;;;;;;;10.28;79.80;96176.41;6159807;23;20199;-84
2021/10/18 01:54:29;;;;;;;16.87;15.07;;;;;;;10.23;80.52;96177.84;6159217;23;20185;-85
2021/10/18 01:56:56;;;;;;;17.40;15.60;;;;;;;10.20;81.04;96186.69;6159666;23;20244;-83
2021/10/18 01:59:31;;;;;;;21.10;16.63;;;;;;;10.22;80.74;96189.91;6159645;23;20258;-85
2021/10/18 02:01:57;;;;;;;19.20;15.03;;;;;;;10.30;80.45;96182.19;6159756;23;20285;-82
2021/10/18 02:04:24;;;;;;;19.53;16.27;;;;;;;10.20;81.42;96194.41;6159957;23;20175;-84
2021/10/18 02:06:51;;;;;;;16.57;14.97;;;;;;;10.19;81.77;96190.25;6159544;23;20560;-84
2021/10/18 02:09:20;;;;;;;16.80;15.10;;;;;;;10.23;81.34;96185.56;6158932;23;20209;-85
2021/10/18 02:11:56;;;;;;;16.97;15.13;;;;;;;10.32;81.06;96192.34;6159919;23;20213;-84
2021/10/18 02:14:23;;;;;;;32.50;17.00;;;;;;;10.31;80.94;96190.72;6158890;23;20242;-85
2021/10/18 02:16:49;;;;;;;19.70;15.97;;;;;;;10.35;80.96;96194.59;6158513;23;20194;-84
2021/10/18 02:19:16;;;;;;;17.47;15.70;;;;;;;10.36;81.07;96193.63;6159213;23;20179;-84
2021/10/18 02:21:42;;;;;;;26.93;16.60;;;;;;;10.14;82.38;96187.31;6159430;23;20258;-84
2021/10/18 02:24:09;;;;;;;21.60;15.97;;;;;;;10.19;82.12;96185.09;6159029;23;20201;-85
2021/10/18 02:26:35;;;;;;;18.33;16.10;;;;;;;10.22;82.54;96184.75;6159189;23;20181;-84
2021/10/18 02:29:03;;;;;;;18.03;16.10;;;;;;;10.23;82.73;96191.50;6158585;23;20199;-83
2021/10/18 02:31:30;;;;;;;23.03;16.20;;;;;;;10.27;82.52;96186.84;6158229;23;20774;-84
2021/10/18 02:33:56;;;;;;;18.23;15.83;;;;;;;10.30;82.03;96194.25;6157543;23;20643;-85
2021/10/18 02:36:23;;;;;;;18.40;15.47;;;;;;;10.22;82.58;96187.31;6158472;23;20183;-83
2021/10/18 02:38:49;;;;;;;30.10;16.13;;;;;;;10.17;83.36;96196.47;6158039;23;20633;-85
2021/10/18 02:41:16;;;;;;;19.87;17.27;;;;;;;10.13;83.57;96197.75;6159333;23;20174;-84
2021/10/18 02:43:42;;;;;;;18.60;16.60;;;;;;;10.20;83.01;96199.53;6158184;23;20179;-83
2021/10/18 02:46:10;;;;;;;18.97;16.73;;;;;;;10.16;83.69;96200.81;6159240;23;20175;-84
2021/10/18 02:48:36;;;;;;;18.57;16.63;;;;;;;10.04;84.11;96196.91;6157883;23;20175;-83
2021/10/18 02:51:04;;;;;;;20.70;17.37;;;;;;;10.14;83.64;96192.44;6158867;23;20209;-84
2021/10/18 02:53:30;;;;;;;23.93;17.00;;;;;;;10.05;84.89;96190.81;6159089;23;20195;-83
2021/10/18 02:55:57;;;;;;;17.97;16.13;;;;;;;10.14;84.06;96189.88;6158864;23;20175;-83
2021/10/18 02:58:23;;;;;;;17.47;15.47;;;;;;;10.21;83.25;96193.44;6158091;23;20640;-85
2021/10/18 03:00:50;;;;;;;37.67;17.43;;;;;;;10.12;83.71;96193.56;6158485;23;20177;-85
2021/10/18 03:03:17;;;;;;;19.03;16.77;;;;;;;10.18;83.26;96191.19;6158407;23;20195;-84
2021/10/18 03:05:44;;;;;;;18.70;16.70;;;;;;;10.25;83.06;96183.63;6157494;23;20178;-85
2021/10/18 03:08:10;;;;;;;19.17;17.17;;;;;;;10.31;82.90;96186.38;6158371;23;20185;-84
2021/10/18 03:10:40;;;;;;;18.83;16.83;;;;;;;10.36;82.68;96184.16;6158021;23;20203;-84
2021/10/18 03:13:06;;;;;;;18.60;16.60;;;;;;;10.40;82.38;96189.75;6157919;23;20199;-84
2021/10/18 03:15:33;;;;;;;18.10;16.20;;;;;;;10.46;82.28;96196.03;6157253;23;20186;-83
2021/10/18 03:17:59;;;;;;;54.50;18.47;;;;;;;10.43;82.42;96192.00;6156970;23;20183;-83
2021/10/18 03:20:27;;;;;;;19.03;17.03;;;;;;;10.45;82.57;96197.81;6158468;23;20177;-84
2021/10/18 03:22:54;;;;;;;20.83;16.83;;;;;;;10.43;82.80;96201.50;6157870;23;20203;-84
2021/10/18 03:25:21;;;;;;;19.03;16.50;;;;;;;10.42;82.68;96199.88;6158208;23;20179;-83
2021/10/18 03:27:47;;;;;;;21.27;17.00;;;;;;;10.37;82.78;96192.66;6158384;23;20178;-85
2021/10/18 03:30:14;;;;;;;19.67;17.53;;;;;;;10.37;82.73;96201.19;6158278;23;20202;-84
2021/10/18 03:32:41;;;;;;;42.40;17.33;;;;;;;10.37;82.22;96197.81;6157335;23;20222;-85
2021/10/18 03:35:08;;;;;;;19.03;17.13;;;;;;;10.41;82.55;96196.50;6157817;23;20175;-84
2021/10/18 03:37:36;;;;;;;20.17;17.97;;;;;;;10.43;82.40;96189.44;6157892;23;20190;-84
2021/10/18 03:40:03;;;;;;;17.53;15.73;;;;;;;10.50;82.17;96194.75;6157676;23;20209;-85
2021/10/18 03:42:29;;;;;;;18.80;16.43;;;;;;;10.52;81.58;96200.56;6156512;23;20195;-84
2021/10/18 03:44:56;;;;;;;18.63;16.83;;;;;;;10.52;81.88;96205.72;6157613;23;20175;-83
2021/10/18 03:47:22;;;;;;;19.13;16.73;;;;;;;10.53;81.71;96202.97;6157416;23;20206;-85
2021/10/18 03:49:49;;;;;;;18.20;16.30;;;;;;;10.57;81.40;96211.19;6157233;23;20221;-85
2021/10/18 03:52:17;;;;;;;20.13;17.10;;;;;;;10.49;81.83;96211.97;6157619;23;20230;-85
2021/10/18 03:54:45;;;;;;;17.90;16.00;;;;;;;10.49;81.30;96216.31;6156601;23;20175;-84
2021/10/18 03:57:12;;;;;;;27.37;15.93;;;;;;;10.49;81.62;96217.13;6157322;23;20185;-83
2021/10/18 03:59:38;;;;;;;19.93;16.63;;;;;;;10.51;81.46;96227.25;6157028;23;20182;-83
2021/10/18 04:02:06;;;;;;;18.10;16.30;;;;;;;10.51;81.80;96237.56;6157190;23;20696;-84
2021/10/18 04:04:33;;;;;;;18.53;16.63;;;;;;;10.39;82.45;96237.09;6156807;23;20214;-83
2021/10/18 04:06:59;;;;;;;19.70;17.60;;;;;;;10.33;82.90;96251.38;6157308;23;20508;-83
2021/10/18 04:09:26;;;;;;;19.43;17.37;;;;;;;10.35;82.75;96252.03;6156871;23;20716;-85
2021/10/18 04:11:57;;;;;;;19.17;16.70;;;;;;;10.41;83.09;96257.50;6158872;23;20221;-84
2021/10/18 04:14:23;;;;;;;22.47;17.83;;;;;;;10.40;82.97;96272.13;6157099;23;20175;-86
2021/10/18 04:17:05;;;;;;;18.50;16.50;;;;;;;10.46;82.75;96268.94;6152807;23;20516;-85
2021/10/18 04:19:32;;;;;;;26.70;18.03;;;;;;;10.45;82.65;96266.50;6154563;23;20248;-86
2021/10/18 04:21:58;;;;;;;21.60;17.77;;;;;;;10.35;83.42;96266.66;6155333;23;20536;-85
2021/10/18 04:24:25;;;;;;;20.43;18.23;;;;;;;10.42;83.66;96266.81;6154907;23;20206;-85
2021/10/18 04:26:51;;;;;;;21.10;18.80;;;;;;;10.25;85.14;96268.56;6154935;23;20230;-85
2021/10/18 04:29:22;;;;;;;20.77;18.57;;;;;;;10.19;85.59;96269.22;6154927;23;20254;-86
2021/10/18 04:31:49;;;;;;;19.73;17.63;;;;;;;10.17;85.62;96277.06;6154925;23;20217;-86
2021/10/18 04:34:15;;;;;;;23.13;19.20;;;;;;;10.20;85.75;96276.75;6154302;23;20175;-86
2021/10/18 04:36:42;;;;;;;21.67;19.37;;;;;;;10.31;85.00;96278.25;6154481;23;20179;-87
2021/10/18 04:39:09;;;;;;;21.00;18.73;;;;;;;10.22;85.42;96274.03;6154949;23;20717;-86
2021/10/18 04:41:38;;;;;;;21.93;18.83;;;;;;;10.24;85.61;96275.47;6156032;23;20177;-84
2021/10/18 04:44:06;;;;;;;23.33;18.53;;;;;;;10.31;84.92;96280.81;6156175;23;20568;-86
2021/10/18 04:46:35;;;;;;;24.00;18.60;;;;;;;10.31;85.29;96270.53;6155802;23;20181;-85
2021/10/18 04:49:01;;;;;;;22.23;18.87;;;;;;;10.41;88.38;96291.75;6156275;23;20189;-84
2021/10/18 04:51:27;;;;;;;23.60;19.03;;;;;;;10.49;84.73;96288.41;6153179;23;20606;-86
2021/10/18 04:53:54;;;;;;;22.20;19.83;;;;;;;10.55;84.54;96288.59;6152959;23;20913;-86
2021/10/18 04:56:31;;;;;;;20.73;18.53;;;;;;;10.58;84.29;96302.91;6155154;23;20161;-85
2021/10/18 04:59:00;;;;;;;20.80;18.53;;;;;;;10.53;84.49;96293.09;6156363;23;20214;-84
2021/10/18 05:01:26;;;;;;;22.60;19.03;;;;;;;10.44;85.31;96301.75;6157450;23;20287;-86
2021/10/18 05:03:54;;;;;;;27.20;20.27;;;;;;;10.44;85.54;96300.94;6157131;23;20179;-86
2021/10/18 05:06:24;;;;;;;23.00;19.90;;;;;;;10.49;85.11;96312.38;6157383;23;20405;-86
2021/10/18 05:08:51;;;;;;;26.90;20.33;;;;;;;10.54;84.26;96311.91;6157008;23;20251;-85
2021/10/18 05:11:17;;;;;;;24.10;20.03;;;;;;;10.56;84.00;96318.53;6157924;23;20205;-85
2021/10/18 05:13:47;;;;;;;25.63;20.13;;;;;;;10.44;85.41;96313.81;6157432;23;20635;-86
2021/10/18 05:16:14;;;;;;;24.07;19.80;;;;;;;10.46;85.13;96312.69;6157987;23;20175;-84
2021/10/18 05:18:40;;;;;;;23.63;20.57;;;;;;;10.42;85.41;96301.09;6157097;23;20274;-86
2021/10/18 05:21:08;;;;;;;25.63;20.30;;;;;;;10.48;85.15;96300.47;6158663;23;20182;-86
2021/10/18 05:23:35;;;;;;;32.87;20.43;;;;;;;10.48;85.30;96297.09;6159478;23;20542;-85
2021/10/18 05:26:03;;;;;;;25.17;20.47;;;;;;;10.45;85.12;96305.13;6158634;23;20217;-86
2021/10/18 05:28:30;;;;;;;27.37;21.77;;;;;;;10.48;84.64;96302.25;6158635;23;20660;-86
2021/10/18 05:31:03;;;;;;;23.87;20.17;;;;;;;10.50;84.90;96305.47;6157853;23;20703;-84
2021/10/18 05:33:35;;;;;;;24.83;21.30;;;;;;;10.56;84.64;96304.84;6157405;23;20191;-86
2021/10/18 05:36:12;;;;;;;24.87;20.87;;;;;;;10.56;84.51;96315.94;6157167;23;20560;-85
2021/10/18 05:38:44;;;;;;;26.53;20.70;;;;;;;10.57;84.83;96322.72;6158102;23;20166;-84
2021/10/18 05:41:13;;;;;;;24.53;19.83;;;;;;;10.51;84.98;96328.50;6158347;23;20206;-85
2021/10/18 05:43:40;;;;;;;23.73;20.47;;;;;;;10.54;84.78;96332.53;6157322;23;20202;-84
2021/10/18 05:46:07;;;;;;;25.97;20.73;;;;;;;10.46;85.93;96329.91;6158285;23;20179;-85
2021/10/18 05:48:34;;;;;;;24.77;19.63;;;;;;;10.46;85.47;96335.88;6158011;23;20186;-86
2021/10/18 05:51:02;;;;;;;26.73;21.20;;;;;;;10.42;85.72;96336.34;6157364;23;20524;-84
2021/10/18 05:53:34;;;;;;;26.50;21.33;;;;;;;10.43;86.08;96341.31;6158291;23;20567;-84
2021/10/18 05:56:28;;;;;;;27.83;21.83;;;;;;;10.28;87.36;96348.84;6158279;23;20469;-85
2021/10/18 05:59:07;;;;;;;26.03;20.73;;;;;;;10.34;87.07;96347.44;6157746;23;20482;-85
2021/10/18 06:02:11;;;;;;;24.37;20.13;;;;;;;10.24;87.49;96339.81;6160525;23;20170;-85
2021/10/18 06:04:43;;;;;;;25.03;20.47;;;;;;;10.33;86.84;96349.19;6160422;23;20179;-86
2021/10/18 06:07:17;;;;;;;23.50;19.13;;;;;;;10.43;85.97;96345.66;6161982;23;20191;-85
2021/10/18 06:10:14;;;;;;;24.63;19.87;;;;;;;10.31;88.40;96358.03;6130369;23;20203;-85
2021/10/18 06:12:49;;;;;;;26.83;21.50;;;;;;;10.25;87.43;96363.78;6159048;23;20203;-84
2021/10/18 06:18:11;;;;;;;26.53;19.97;;;;;;;10.13;88.41;96370.16;6153970;23;20182;-86
2021/10/18 06:20:46;;;;;;;29.30;20.00;;;;;;;10.11;88.67;96367.72;6160267;23;20175;-83
2021/10/18 06:23:13;;;;;;;30.97;20.83;;;;;;;10.07;88.87;96373.34;6159573;23;20400;-86
2021/10/18 06:31:22;;;;;;;24.10;18.77;;;;;;;10.17;88.58;96381.75;6154465;23;20542;-84
2021/10/18 06:33:59;;;;;;;35.77;21.13;;;;;;;10.10;88.94;96388.47;6156712;23;20179;-83
2021/10/18 06:36:30;;;;;;;27.00;20.00;;;;;;;10.07;89.44;96388.78;6158302;23;20163;-85
2021/10/18 06:38:57;;;;;;;43.67;20.40;;;;;;;10.10;89.33;96381.56;6157888;23;20175;-85
2021/10/18 06:41:26;;;;;;;30.43;19.17;;;;;;;10.11;89.12;96382.38;6159132;23;20238;-83
2021/10/18 06:43:55;;;;;;;23.53;19.37;;;;;;;10.19;88.48;96388.41;6159142;23;20645;-85
2021/10/18 06:47:18;;;;;;;25.70;19.70;;;;;;;10.17;88.68;96397.19;6158405;23;20164;-84
2021/10/18 06:49:46;;;;;;;25.73;19.73;;;;;;;10.24;87.96;96398.22;6142224;23;20272;-85
2021/10/18 06:52:15;;;;;;;24.73;19.47;;;;;;;10.26;87.80;96393.72;6158015;23;20706;-85
2021/10/18 06:54:53;;;;;;;23.83;19.43;;;;;;;10.35;86.98;96401.34;6157747;23;20441;-83
2021/10/18 06:57:22;;;;;;;49.27;19.93;;;;;;;10.32;86.82;96401.63;6158192;23;20289;-84
2021/10/18 06:59:50;;;;;;;24.03;19.67;;;;;;;10.37;86.69;96409.72;6157674;23;20211;-83
2021/10/18 07:02:24;;;;;;;23.83;19.67;;;;;;;10.38;86.67;96413.91;6156010;23;20221;-85
2021/10/18 07:04:50;;;;;;;21.30;18.50;;;;;;;10.43;86.42;96417.75;6157097;23;20167;-85
2021/10/18 07:07:17;;;;;;;22.13;18.17;;;;;;;10.49;85.94;96420.53;6157673;23;20182;-84
2021/10/18 07:09:43;;;;;;;27.03;20.23;;;;;;;10.50;85.66;96418.75;6155981;23;20257;-86
2021/10/18 07:12:10;;;;;;;26.50;18.83;;;;;;;10.37;86.73;96417.44;6156929;23;20199;-83
2021/10/18 07:14:41;;;;;;;24.37;19.57;;;;;;;10.35;87.32;96423.69;6157535;23;20181;-84
2021/10/18 07:17:08;;;;;;;24.57;20.00;;;;;;;10.35;88.00;96429.66;6156890;23;20187;-86
2021/10/18 07:19:34;;;;;;;31.00;20.60;;;;;;;10.41;87.32;96429.97;6156692;23;20208;-83
2021/10/18 07:22:00;;;;;;;23.37;19.10;;;;;;;10.43;87.65;96436.59;6156175;23;20198;-83
2021/10/18 07:24:27;;;;;;;23.73;18.83;;;;;;;10.42;88.17;96442.69;6156170;23;20179;-85
2021/10/18 07:27:15;;;;;;;26.10;20.23;;;;;;;10.38;88.79;96437.06;6157097;23;20695;-83
2021/10/18 07:29:47;;;;;;;31.27;19.70;;;;;;;10.46;87.56;96435.47;6157592;23;20222;-85
2021/10/18 07:32:21;;;;;;;24.93;18.27;;;;;;;10.38;87.25;96442.22;6156702;23;20873;-85
2021/10/18 07:34:48;;;;;;;32.90;19.57;;;;;;;10.41;86.83;96442.84;6155776;23;20174;-84
2021/10/18 07:37:18;;;;;;;26.60;18.83;;;;;;;10.44;87.16;96445.13;6156122;23;20187;-84
2021/10/18 07:39:44;;;;;;;23.83;18.03;;;;;;;10.50;87.11;96447.09;6155103;23;20174;-85
2021/10/18 07:42:22;;;;;;;28.97;18.40;;;;;;;10.35;87.90;96446.84;6156880;23;20241;-84
2021/10/18 07:44:53;;;;;;;24.67;18.87;;;;;;;10.31;88.36;96448.94;6155919;23;20250;-85
2021/10/18 07:47:23;;;;;;;24.87;19.57;;;;;;;10.37;88.39;96450.09;6157129;23;20166;-85
2021/10/18 07:49:50;;;;;;;23.80;18.23;;;;;;;10.50;87.64;96458.19;6155734;23;20197;-84
2021/10/18 07:52:18;;;;;;;24.17;18.20;;;;;;;10.47;87.38;96455.09;6155733;23;20199;-85
2021/10/18 07:54:52;;;;;;;27.97;18.73;;;;;;;10.49;87.73;96454.00;6155427;23;20182;-82
2021/10/18 07:57:23;;;;;;;27.00;19.13;;;;;;;10.54;87.51;96449.19;6153268;23;20183;-82
2021/10/18 07:59:58;;;;;;;25.60;18.87;;;;;;;10.57;87.34;96450.66;6156837;23;20164;-83
2021/10/18 08:02:30;;;;;;;24.50;18.63;;;;;;;10.65;87.02;96451.47;6156541;23;20190;-84
2021/10/18 08:04:57;;;;;;;27.23;18.70;;;;;;;10.66;86.49;96449.72;6155732;23;20214;-84
2021/10/18 08:07:27;;;;;;;27.10;18.80;;;;;;;10.67;86.90;96453.91;6156088;23;20179;-85
2021/10/18 08:09:59;;;;;;;27.93;18.30;;;;;;;10.68;86.71;96453.75;6120878;23;20211;-85
2021/10/18 08:12:26;;;;;;;25.30;18.27;;;;;;;10.73;86.67;96454.09;6151109;23;20202;-83
2021/10/18 08:14:58;;;;;;;27.87;19.37;;;;;;;10.72;86.38;96461.97;6155684;23;20229;-85
2021/10/18 08:17:27;;;;;;;27.00;19.27;;;;;;;10.77;86.59;96466.69;6156065;23;20187;-85
2021/10/18 08:19:59;;;;;;;27.40;18.87;;;;;;;10.77;86.82;96467.47;6155696;23;20179;-84
2021/10/18 08:22:31;;;;;;;27.70;20.33;;;;;;;10.84;85.97;96462.50;6155182;23;20205;-84
2021/10/18 08:25:16;;;;;;;29.60;20.20;;;;;;;10.89;85.65;96461.06;6156304;23;20640;-84
2021/10/18 08:28:03;;;;;;;28.00;19.40;;;;;;;10.93;85.21;96466.72;6155994;23;20597;-83
2021/10/18 08:30:43;;;;;;;28.67;19.63;;;;;;;10.94;85.76;96464.00;6156600;23;20170;-82
2021/10/18 08:33:29;;;;;;;28.37;19.37;;;;;;;11.03;85.46;96467.38;6157881;23;20269;-85
2021/10/18 08:36:04;;;;;;;25.20;19.13;;;;;;;11.04;85.58;96474.16;6157715;23;20237;-85
2021/10/18 08:38:49;;;;;;;27.30;19.60;;;;;;;11.05;85.72;96478.34;6157672;23;20221;-84
2021/10/18 08:41:28;;;;;;;28.00;19.57;;;;;;;11.06;85.25;96474.81;6157275;23;20209;-85
2021/10/18 08:44:17;;;;;;;28.53;19.47;;;;;;;10.87;86.64;96481.03;6157127;23;20170;-84
2021/10/18 08:46:52;;;;;;;24.97;19.27;;;;;;;10.86;87.23;96478.59;6159419;23;20178;-84
2021/10/18 08:49:19;;;;;;;26.87;19.17;;;;;;;10.88;87.56;96479.25;6161951;23;20193;-84
2021/10/18 08:51:47;;;;;;;26.80;19.13;;;;;;;10.82;88.22;96482.44;6161780;23;20261;-86
2021/10/18 08:54:17;;;;;;;28.37;19.83;;;;;;;10.83;87.86;96481.50;6160570;23;20178;-84
2021/10/18 08:56:44;;;;;;;28.97;20.20;;;;;;;10.82;88.91;96472.94;6157131;23;20171;-84
2021/10/18 08:59:16;;;;;;;29.87;21.17;;;;;;;10.79;88.55;96481.00;6156440;23;20653;-85
2021/10/18 09:01:47;;;;;;;28.47;20.27;;;;;;;10.91;88.31;96478.94;6156102;23;20214;-83
2021/10/18 09:04:34;;;;;;;31.57;21.93;;;;;;;10.91;89.21;96481.53;6157111;23;20234;-84
2021/10/18 09:07:18;;;;;;;31.77;21.87;;;;;;;11.08;88.42;96486.56;6156488;23;20183;-84
2021/10/18 09:09:55;;;;;;;32.93;21.80;;;;;;;11.06;88.13;96485.09;6155992;23;20752;-84
2021/10/18 09:12:28;;;;;;;32.73;22.70;;;;;;;11.17;87.49;96487.38;6156411;23;20796;-85
2021/10/18 09:15:18;;;;;;;30.97;21.47;;;;;;;11.22;86.91;96486.91;6156769;23;20199;-85
2021/10/18 09:17:54;;;;;;;32.73;21.80;;;;;;;11.32;86.41;96490.97;6156806;23;20221;-84
2021/10/18 09:20:36;;;;;;;30.13;21.43;;;;;;;11.33;86.93;96492.59;6156253;23;20241;-82
2021/10/18 09:23:24;;;;;;;30.73;21.03;;;;;;;11.42;85.99;96493.41;6155362;23;20210;-86
2021/10/18 09:25:52;;;;;;;28.23;20.30;;;;;;;11.46;84.78;96488.72;6154784;23;20194;-84
2021/10/18 09:28:39;;;;;;;30.63;21.60;;;;;;;11.38;85.35;96485.16;6155466;23;20183;-84
2021/10/18 09:31:26;;;;;;;28.70;20.97;;;;;;;11.40;85.84;96479.84;6159948;23;20171;-85
2021/10/18 09:34:12;;;;;;;30.23;20.77;;;;;;;11.44;85.65;96486.31;6156355;23;20168;-84
2021/10/18 09:36:45;;;;;;;27.47;19.93;;;;;;;11.46;84.41;96483.56;6155154;23;20163;-83
2021/10/18 09:39:18;;;;;;;27.33;20.23;;;;;;;11.47;84.47;96482.63;6156101;23;20539;-84
2021/10/18 09:41:59;;;;;;;25.37;19.87;;;;;;;11.49;84.67;96485.84;6156103;23;20226;-83
2021/10/18 09:44:55;;;;;;;28.07;20.50;;;;;;;11.43;85.34;96490.66;6155243;23;20174;-84
2021/10/18 10:53:44;;;;;;;24.07;18.77;;;;;;;12.26;80.11;96464.69;6154128;23;20644;-82
2021/10/18 10:56:23;;;;;;;24.23;18.17;;;;;;;12.22;80.14;96467.75;6156902;23;20159;-83
2021/10/18 10:58:53;;;;;;;22.77;18.43;;;;;;;12.31;80.95;96462.44;6155686;23;20163;-84
2021/10/18 11:01:44;;;;;;;22.53;17.77;;;;;;;12.48;80.33;96454.63;6155819;23;20163;-85
2021/10/18 11:04:43;;;;;;;20.90;17.67;;;;;;;12.62;79.00;96446.97;6157539;23;20159;-84
2021/10/18 11:07:12;;;;;;;25.67;18.60;;;;;;;12.65;78.09;96451.81;6157715;23;20198;-84
2021/10/18 11:09:40;;;;;;;24.60;18.03;;;;;;;12.72;78.04;96447.56;6156917;23;20260;-85
2021/10/18 11:12:09;;;;;;;22.50;17.67;;;;;;;12.73;76.55;96450.97;6157788;23;20198;-84
2021/10/18 11:14:36;;;;;;;24.03;17.80;;;;;;;12.79;76.71;96445.94;6158724;23;20167;-84
2021/10/18 11:17:03;;;;;;;22.30;17.63;;;;;;;12.89;76.94;96442.34;6157435;23;20197;-84
2021/10/18 11:19:30;;;;;;;22.70;18.07;;;;;;;12.91;75.33;96433.41;6157992;23;20178;-83
2021/10/18 11:21:58;;;;;;;20.60;17.87;;;;;;;12.85;74.37;96428.16;6158145;23;20201;-85
2021/10/18 11:24:25;;;;;;;20.97;18.03;;;;;;;12.74;75.38;96422.38;6157633;23;20175;-85
2021/10/18 11:26:54;;;;;;;21.37;16.97;;;;;;;12.92;77.99;96422.09;6157438;23;20182;-84
2021/10/18 11:29:33;;;;;;;20.77;17.00;;;;;;;13.21;75.34;96420.69;6157276;23;20178;-85
2021/10/18 11:32:23;;;;;;;19.27;15.37;;;;;;;13.52;74.47;96429.19;6157685;23;20209;-87
2021/10/18 11:38:14;;;;;;;18.73;16.33;;;;;;;13.77;72.51;96415.06;6156298;23;20174;-86
2021/10/18 11:40:47;;;;;;;19.13;16.50;;;;;;;13.63;71.47;96420.22;6154600;23;20232;-86
2021/10/18 11:43:24;;;;;;;18.37;16.03;;;;;;;13.58;71.07;96419.94;6156772;23;20565;-84
2021/10/18 11:45:56;;;;;;;19.40;15.73;;;;;;;13.56;71.67;96419.28;6156590;23;20167;-84
2021/10/18 11:48:25;;;;;;;18.77;16.17;;;;;;;13.67;71.14;96411.09;6154094;23;20182;-85
2021/10/18 11:51:00;;;;;;;18.07;15.77;;;;;;;13.69;70.45;96411.72;6154349;23;20181;-84
2021/10/18 11:53:44;;;;;;;18.03;15.57;;;;;;;13.77;70.50;96417.66;6153797;23;20202;-85
2021/10/18 11:56:19;;;;;;;17.63;15.30;;;;;;;13.65;69.71;96410.50;6153226;23;20162;-84
2021/10/18 11:58:55;;;;;;;16.17;14.47;;;;;;;13.80;70.95;96406.16;6153052;23;20233;-83
2021/10/18 12:01:34;;;;;;;18.30;14.20;;;;;;;13.94;68.71;96407.13;6152963;23;20526;-84
2021/10/18 12:04:09;;;;;;;17.30;15.40;;;;;;;13.90;68.07;96404.09;6152230;23;20167;-84
2021/10/18 12:06:53;;;;;;;16.37;14.67;;;;;;;14.00;67.16;96409.03;6154250;23;20193;-83
2021/10/18 12:09:38;;;;;;;18.07;14.57;;;;;;;14.09;67.54;96392.41;6154360;23;20211;-84
2021/10/18 12:12:26;;;;;;;16.77;13.73;;;;;;;14.30;67.99;96402.06;6153406;23;20267;-85
2021/10/18 12:15:08;;;;;;;16.47;14.17;;;;;;;14.24;66.15;96392.44;6153367;23;20167;-84
2021/10/18 12:17:37;;;;;;;16.97;15.17;;;;;;;14.35;67.85;96397.16;6153560;23;20182;-83
2021/10/18 12:20:06;;;;;;;17.50;15.67;;;;;;;14.43;68.55;96391.91;6156905;23;20175;-85
2021/10/18 12:22:33;;;;;;;19.60;15.53;;;;;;;14.54;69.05;96394.03;6157037;23;20473;-84
2021/10/18 12:25:06;;;;;;;18.10;15.77;;;;;;;14.70;68.65;96393.81;6152338;23;20186;-82
2021/10/18 12:27:35;;;;;;;20.90;16.30;;;;;;;14.77;68.13;96386.94;6154237;23;20178;-82
2021/10/18 12:30:02;;;;;;;19.73;17.53;;;;;;;14.79;67.07;96394.53;6153698;23;20179;-85
2021/10/18 12:32:36;;;;;;;18.23;15.80;;;;;;;14.73;67.50;96393.47;6153354;23;20199;-85
2021/10/18 12:35:07;;;;;;;19.10;16.57;;;;;;;14.85;67.55;96389.41;6153811;23;20174;-87
2021/10/18 12:37:34;;;;;;;22.10;17.10;;;;;;;14.91;67.47;96389.66;6153451;23;20179;-85
2021/10/18 12:40:10;;;;;;;18.20;15.50;;;;;;;14.94;67.33;96392.69;6154135;23;20179;-85
2021/10/18 12:42:47;;;;;;;20.08;16.98;;;;;;;14.94;66.87;96391.91;6154568;23;20202;-83
2021/10/18 12:45:15;;;;;;;18.45;16.55;;;;;;;15.02;67.05;96389.97;6153590;23;20186;-85
2021/10/18 12:47:54;;;;;;;19.05;16.83;;;;;;;14.99;66.75;96384.38;6154892;23;20175;-84
2021/10/18 12:50:27;;;;;;;19.52;17.38;;;;;;;15.02;67.18;96391.75;6153773;23;20163;-85
2021/10/18 12:52:54;;;;;;;19.05;16.63;;;;;;;15.04;66.88;96390.59;6153285;23;20804;-84